P/v Golden Gate — WDE5665 — position and weather

sailwx.info

Track history (hours):
 
Tides and Currents Weather Stations Pressure Air Temp Water Temp Dewpoint Dewpoint Depression Visibility Wind Speed Wind Dir Waves Ship Positions

P/v Golden Gate

Owner: San Francisco Bar Pilots Benevolent and Protective, San Francisco, CA. More information available from US FCC via Universal Licensing System and Coast Guard Vessel Documentation Center.

Last reported at 2016-Apr-19 19:34 UTC. Time now 2016-Apr-30 18:49 UTC.
Position N 37°47' W 122°18'.
Warning: this ship's position is 10 days out of date.

Length 23 m; draft 2 m.

Type: Pilot. MMSI: 367370010.

Date/timePositionNaut miles runAvg speedWind from/ knotsBaromVisibWave heightAir tempDewpointWater temp
2016-Apr-19 19:34N 37°47' W 122°18'0 0.0
2016-Apr-19 18:33N 37°47' W 122°18'0 0.0
2016-Apr-19 17:33N 37°47' W 122°18'0 0.0
2016-Apr-19 16:33N 37°47' W 122°18'0 0.0
2016-Apr-18 22:33N 37°47' W 122°17'0 0.0
2016-Apr-18 21:33N 37°47' W 122°17'5 5.0
2016-Apr-18 20:33N 37°48' W 122°24'0 0.1
2016-Apr-18 19:33N 37°48' W 122°24'0 0.0
2016-Apr-18 18:33N 37°48' W 122°24'0 0.0
2016-Apr-18 17:33N 37°48' W 122°24'0 0.0
2016-Apr-18 16:33N 37°48' W 122°24'0 0.0
2016-Apr-18 15:33N 37°48' W 122°24'0 0.0
2016-Apr-18 14:33N 37°48' W 122°24'0 0.0
2016-Apr-18 13:33N 37°48' W 122°24'0 0.0
2016-Apr-18 12:33N 37°48' W 122°24'0 0.0
2016-Apr-18 11:33N 37°48' W 122°24'2 1.9
2016-Apr-18 10:34N 37°48' W 122°21'2 1.9
2016-Apr-18 09:33N 37°48' W 122°24'0 0.0
2016-Apr-18 08:33N 37°48' W 122°24'1211.4
2016-Apr-18 07:33N 37°46' W 122°38'1211.7
2016-Apr-18 06:33N 37°48' W 122°24'1 1.0
2016-Apr-18 05:33N 37°47' W 122°23'1 1.0
2016-Apr-18 04:34N 37°48' W 122°24'0 0.0
2016-Apr-18 03:33N 37°48' W 122°24'0 0.0
2016-Apr-18 02:34N 37°48' W 122°24'5 4.7
2016-Apr-18 01:34N 37°48' W 122°30'5 4.6
2016-Apr-18 00:34N 37°49' W 122°24'1 0.5
2016-Apr-17 23:33N 37°48' W 122°24'4 3.5
2016-Apr-17 22:34N 37°48' W 122°19'4 3.5
2016-Apr-17 21:34N 37°48' W 122°24'4 4.1
2016-Apr-17 20:34N 37°45' W 122°20'2 2.4
2016-Apr-17 19:33N 37°48' W 122°19'3 3.4
2016-Apr-17 18:33N 37°48' W 122°24'1110.5
2016-Apr-17 17:33N 37°46' W 122°37'1110.6
2016-Apr-17 16:33N 37°48' W 122°24'1 1.0
2016-Apr-17 15:33N 37°48' W 122°23'1 0.9
2016-Apr-17 14:33N 37°48' W 122°24'4 4.2
2016-Apr-17 13:33N 37°48' W 122°18'4 4.2
2016-Apr-17 12:33N 37°48' W 122°24'1 0.6
2016-Apr-17 11:33N 37°49' W 122°24'4 4.4
2016-Apr-17 10:34N 37°45' W 122°21'4 3.9
2016-Apr-17 09:33N 37°48' W 122°24'0 0.0
2016-Apr-17 08:34N 37°48' W 122°24'0 0.0
2016-Apr-17 07:34N 37°48' W 122°24'0 0.0
2016-Apr-17 06:34N 37°48' W 122°24'0 0.0
2016-Apr-17 05:33N 37°48' W 122°24'0 0.0
2016-Apr-17 04:34N 37°48' W 122°24'9 9.2
2016-Apr-17 03:34N 37°47' W 122°35'9 9.2
2016-Apr-17 02:33N 37°48' W 122°24'0 0.1
2016-Apr-17 01:34N 37°48' W 122°24'4 3.8
2016-Apr-17 00:34N 37°49' W 122°28'6 6.4
2016-Apr-16 23:33N 37°48' W 122°20'3 2.7
2016-Apr-16 22:33N 37°48' W 122°24'0 0.0
2016-Apr-16 21:33N 37°48' W 122°24'0 0.0
2016-Apr-16 20:33N 37°48' W 122°24'0 0.0
2016-Apr-16 19:33N 37°48' W 122°24'1 0.6
2016-Apr-16 18:34N 37°48' W 122°23'1 0.5
2016-Apr-16 17:33N 37°48' W 122°23'2 2.1
2016-Apr-16 16:34N 37°49' W 122°25'4 4.3
2016-Apr-16 15:34N 37°46' W 122°21'3 3.1
2016-Apr-16 14:33N 37°48' W 122°24'0 0.1
2016-Apr-16 13:33N 37°48' W 122°24'2 1.8
2016-Apr-16 12:34N 37°48' W 122°22'1 1.4
2016-Apr-16 11:34N 37°49' W 122°23'3 3.1
2016-Apr-16 10:34N 37°46' W 122°21'3 3.0
2016-Apr-16 09:33N 37°48' W 122°24'0 0.0
2016-Apr-16 08:34N 37°48' W 122°24'0 0.0
2016-Apr-16 07:33N 37°48' W 122°24'0 0.0
2016-Apr-16 06:33N 37°48' W 122°24'4 3.6
2016-Apr-16 05:34N 37°49' W 122°28'6 6.1
2016-Apr-16 04:33N 37°49' W 122°20'3 2.7
2016-Apr-16 03:33N 37°48' W 122°24'0 0.0
2016-Apr-16 02:33N 37°48' W 122°24'0 0.0
2016-Apr-16 01:33N 37°48' W 122°24'0 0.0
2016-Apr-16 00:33N 37°48' W 122°24'0 0.0
2016-Apr-15 23:33N 37°48' W 122°24'0 0.0
2016-Apr-15 22:33N 37°48' W 122°24'0 0.0
2016-Apr-15 21:33N 37°48' W 122°24'0 0.0
2016-Apr-15 20:33N 37°48' W 122°24'0 0.0
2016-Apr-15 19:34N 37°48' W 122°24'0 0.0
2016-Apr-15 18:33N 37°48' W 122°24'0 0.0
2016-Apr-15 17:33N 37°48' W 122°24'0 0.0
2016-Apr-15 16:33N 37°48' W 122°24'3 3.0
2016-Apr-15 15:33N 37°48' W 122°20'5 5.3
2016-Apr-15 14:33N 37°49' W 122°27'2 2.4
2016-Apr-15 13:34N 37°48' W 122°24'0 0.0
2016-Apr-15 12:33N 37°48' W 122°24'0 0.0
2016-Apr-15 11:33N 37°48' W 122°24'0 0.0
2016-Apr-15 10:33N 37°48' W 122°24'0 0.0
2016-Apr-15 09:33N 37°48' W 122°24'4 3.9
2016-Apr-15 08:33N 37°46' W 122°20'4 3.8
2016-Apr-15 07:33N 37°48' W 122°24'0 0.0
2016-Apr-15 06:33N 37°48' W 122°24'2 1.8
2016-Apr-15 05:33N 37°48' W 122°22'2 1.8
2016-Apr-15 04:33N 37°48' W 122°24'1 0.9
2016-Apr-15 03:34N 37°49' W 122°24'9 8.5
2016-Apr-15 02:33N 37°47' W 122°35'9 8.7
2016-Apr-15 01:33N 37°48' W 122°24'0 0.0
2016-Apr-15 00:33N 37°48' W 122°24'0 0.0
2016-Apr-14 23:33N 37°48' W 122°24'0 0.0
2016-Apr-14 22:33N 37°48' W 122°24'0 0.0
2016-Apr-14 21:32N 37°48' W 122°24'0 0.0
2016-Apr-14 20:33N 37°48' W 122°24'0 0.0
2016-Apr-14 19:33N 37°48' W 122°24'0 0.0
2016-Apr-14 18:33N 37°48' W 122°24'0 0.0
2016-Apr-14 17:33N 37°48' W 122°24'0 0.0
2016-Apr-14 16:33N 37°48' W 122°24'1 1.2
2016-Apr-14 15:33N 37°49' W 122°25'1 1.4
2016-Apr-14 14:34N 37°48' W 122°24'0 0.2
2016-Apr-14 13:33N 37°48' W 122°24'0 0.0
2016-Apr-14 12:33N 37°48' W 122°24'2 2.2
2016-Apr-14 11:34N 37°49' W 122°26'2 2.2
2016-Apr-14 10:33N 37°48' W 122°24'0 0.0
2016-Apr-14 09:33N 37°48' W 122°24'0 0.0
2016-Apr-14 08:33N 37°48' W 122°24'0 0.0
2016-Apr-14 07:33N 37°48' W 122°24'2 2.3
2016-Apr-14 06:34N 37°46' W 122°22'2 2.2
2016-Apr-14 05:33N 37°48' W 122°20'6 6.3
2016-Apr-14 04:34N 37°49' W 122°27'3 3.4
2016-Apr-14 03:34N 37°48' W 122°23'3 3.0
2016-Apr-14 02:33N 37°48' W 122°20'3 3.4
2016-Apr-14 01:33N 37°48' W 122°24'0 0.0
2016-Apr-14 00:31N 37°48' W 122°24'0 0.0
2016-Apr-13 23:34N 37°48' W 122°24'2 1.7
2016-Apr-13 22:33N 37°47' W 122°22'0 0.3
2016-Apr-13 21:33N 37°47' W 122°22'2 1.8
2016-Apr-13 20:33N 37°48' W 122°24'0 0.1
2016-Apr-13 19:33N 37°48' W 122°24'0 0.0
2016-Apr-13 18:33N 37°48' W 122°24'0 0.0
2016-Apr-13 17:33N 37°48' W 122°24'0 0.0
2016-Apr-13 16:33N 37°48' W 122°24'4 3.8
2016-Apr-13 15:34N 37°48' W 122°19'3 2.7
2016-Apr-13 14:33N 37°46' W 122°21'3 3.4
2016-Apr-13 13:33N 37°48' W 122°24'2 2.0
2016-Apr-13 12:33N 37°49' W 122°26'5 5.2
2016-Apr-13 11:33N 37°48' W 122°20'3 3.4
2016-Apr-13 10:33N 37°48' W 122°24'3 3.2
2016-Apr-13 09:33N 37°48' W 122°20'3 3.2
2016-Apr-13 08:33N 37°48' W 122°24'2 1.9
2016-Apr-13 07:33N 37°49' W 122°26'2 1.9
2016-Apr-13 06:33N 37°48' W 122°24'0 0.0
2016-Apr-13 05:33N 37°48' W 122°24'0 0.0
2016-Apr-13 04:33N 37°48' W 122°24'3 2.6
2016-Apr-13 03:33N 37°48' W 122°21'2 1.7
2016-Apr-13 02:33N 37°48' W 122°18'3 2.5
2016-Apr-13 01:33N 37°48' W 122°22'2 1.7
2016-Apr-13 00:34N 37°48' W 122°24'3 3.2
2016-Apr-12 23:34N 37°46' W 122°21'3 3.2
2016-Apr-12 22:33N 37°48' W 122°24'0 0.0
2016-Apr-12 21:33N 37°48' W 122°24'1 1.3
2016-Apr-12 20:33N 37°49' W 122°25'1 1.3
2016-Apr-12 19:33N 37°48' W 122°24'0 0.0
2016-Apr-12 18:33N 37°48' W 122°24'0 0.0
2016-Apr-12 17:33N 37°48' W 122°24'0 0.0
2016-Apr-12 16:33N 37°48' W 122°24'0 0.0
2016-Apr-12 15:33N 37°48' W 122°24'0 0.0
2016-Apr-12 14:33N 37°48' W 122°24'0 0.0
2016-Apr-12 13:33N 37°48' W 122°24'0 0.0
2016-Apr-12 12:33N 37°48' W 122°24'0 0.0
2016-Apr-12 11:33N 37°48' W 122°24'3 3.4
2016-Apr-12 10:34N 37°45' W 122°21'1211.6
2016-Apr-12 09:33N 37°46' W 122°36'1010.0
2016-Apr-12 08:33N 37°48' W 122°24'0 0.2
2016-Apr-12 07:33N 37°48' W 122°24'0 0.0
2016-Apr-12 06:33N 37°48' W 122°24'0 0.0
2016-Apr-12 05:33N 37°48' W 122°24'0 0.0
2016-Apr-12 04:33N 37°48' W 122°24'0 0.0
2016-Apr-12 03:33N 37°48' W 122°24'5 4.6
2016-Apr-12 02:33N 37°48' W 122°30'1 0.5
2016-Apr-12 01:33N 37°49' W 122°30'5 5.0
2016-Apr-12 00:32N 37°48' W 122°24'0 0.0
2016-Apr-11 23:33N 37°48' W 122°24'0 0.0
2016-Apr-11 22:33N 37°48' W 122°24'0 0.0
2016-Apr-11 21:33N 37°48' W 122°24'0 0.0
2016-Apr-11 20:33N 37°48' W 122°24'0 0.0
2016-Apr-11 19:33N 37°48' W 122°24'0 0.0
2016-Apr-11 18:33N 37°48' W 122°24'0 0.0
2016-Apr-11 17:33N 37°48' W 122°24'4 3.6
2016-Apr-11 16:33N 37°48' W 122°19'5 4.8
2016-Apr-11 15:33N 37°49' W 122°25'1 1.2
2016-Apr-11 14:33N 37°48' W 122°24'0 0.0
2016-Apr-11 13:33N 37°48' W 122°24'9 8.7
2016-Apr-11 12:33N 37°47' W 122°35'9 8.7
2016-Apr-11 11:33N 37°48' W 122°24'0 0.0
2016-Apr-11 10:33N 37°48' W 122°24'0 0.0
2016-Apr-11 09:33N 37°48' W 122°24'0 0.0
2016-Apr-11 08:24N 37°48' W 122°24'3 3.0
2016-Apr-11 07:33N 37°49' W 122°27'3 2.5
2016-Apr-11 06:33N 37°48' W 122°24'0 0.0
2016-Apr-11 05:33N 37°48' W 122°24'0 0.3
2016-Apr-11 04:33N 37°48' W 122°24'9 8.9
2016-Apr-11 03:33N 37°47' W 122°35'9 8.6
2016-Apr-11 02:32N 37°48' W 122°24'0 0.0
2016-Apr-11 01:33N 37°48' W 122°24'0 0.0
2016-Apr-11 00:33N 37°48' W 122°24'3 3.4
2016-Apr-10 23:34N 37°49' W 122°28'2 2.4
2016-Apr-10 22:34N 37°49' W 122°25'4 3.5
2016-Apr-10 21:34N 37°46' W 122°22'3 2.9
2016-Apr-10 20:33N 37°49' W 122°24'1 0.7
2016-Apr-10 19:33N 37°48' W 122°24'0 0.0
2016-Apr-10 18:33N 37°48' W 122°24'2 2.2
2016-Apr-10 17:33N 37°48' W 122°21'1 0.6
2016-Apr-10 16:34N 37°48' W 122°21'3 2.6
2016-Apr-10 15:33N 37°48' W 122°24'0 0.0
2016-Apr-10 14:33N 37°48' W 122°24'1 0.6
2016-Apr-10 13:34N 37°48' W 122°23'1 0.6
2016-Apr-10 12:33N 37°48' W 122°24'0 0.0
2016-Apr-10 11:33N 37°48' W 122°24'2 2.3
2016-Apr-10 10:33N 37°48' W 122°21'2 2.2
2016-Apr-10 09:33N 37°48' W 122°24'0 0.0
2016-Apr-10 08:33N 37°48' W 122°24'0 0.1
2016-Apr-10 07:33N 37°48' W 122°24'3 3.3
2016-Apr-10 06:33N 37°46' W 122°21'3 3.3
2016-Apr-10 05:33N 37°48' W 122°24'2 2.5
2016-Apr-10 04:33N 37°46' W 122°22'2 2.5
2016-Apr-10 03:33N 37°48' W 122°24'0 0.0
2016-Apr-10 02:33N 37°48' W 122°24'3 2.9
2016-Apr-10 01:33N 37°46' W 122°21'3 2.9
2016-Apr-10 00:33N 37°48' W 122°24'0 0.0
2016-Apr-09 23:32N 37°48' W 122°24'0 0.0
2016-Apr-09 22:33N 37°48' W 122°24'0 0.0
2016-Apr-09 21:33N 37°48' W 122°24'8 8.5
2016-Apr-09 20:34N 37°47' W 122°34'  
Track history (hours):
 
Tides and Currents Weather Stations Pressure Air Temp Water Temp Dewpoint Dewpoint Depression Visibility Wind Speed Wind Dir Waves Ship Positions

P/v Golden Gate

Owner: San Francisco Bar Pilots Benevolent and Protective, San Francisco, CA. More information available from US FCC via Universal Licensing System and Coast Guard Vessel Documentation Center.

Last reported at 2016-Apr-19 19:34 UTC. Time now 2016-Apr-30 18:49 UTC.
Position N 37°47' W 122°18'.
Warning: this ship's position is 10 days out of date.

Length 23 m; draft 2 m.

Type: Pilot. MMSI: 367370010.

Date/timePositionNaut miles runAvg speedWind from/ knotsBaromVisibWave heightAir tempDewpointWater temp
2016-Apr-19 19:34N 37°47' W 122°18'0 0.0
2016-Apr-19 18:33N 37°47' W 122°18'0 0.0
2016-Apr-19 17:33N 37°47' W 122°18'0 0.0
2016-Apr-19 16:33N 37°47' W 122°18'0 0.0
2016-Apr-18 22:33N 37°47' W 122°17'0 0.0
2016-Apr-18 21:33N 37°47' W 122°17'5 5.0
2016-Apr-18 20:33N 37°48' W 122°24'0 0.1
2016-Apr-18 19:33N 37°48' W 122°24'0 0.0
2016-Apr-18 18:33N 37°48' W 122°24'0 0.0
2016-Apr-18 17:33N 37°48' W 122°24'0 0.0
2016-Apr-18 16:33N 37°48' W 122°24'0 0.0
2016-Apr-18 15:33N 37°48' W 122°24'0 0.0
2016-Apr-18 14:33N 37°48' W 122°24'0 0.0
2016-Apr-18 13:33N 37°48' W 122°24'0 0.0
2016-Apr-18 12:33N 37°48' W 122°24'0 0.0
2016-Apr-18 11:33N 37°48' W 122°24'2 1.9
2016-Apr-18 10:34N 37°48' W 122°21'2 1.9
2016-Apr-18 09:33N 37°48' W 122°24'0 0.0
2016-Apr-18 08:33N 37°48' W 122°24'1211.4
2016-Apr-18 07:33N 37°46' W 122°38'1211.7
2016-Apr-18 06:33N 37°48' W 122°24'1 1.0
2016-Apr-18 05:33N 37°47' W 122°23'1 1.0
2016-Apr-18 04:34N 37°48' W 122°24'0 0.0
2016-Apr-18 03:33N 37°48' W 122°24'0 0.0
2016-Apr-18 02:34N 37°48' W 122°24'5 4.7
2016-Apr-18 01:34N 37°48' W 122°30'5 4.6
2016-Apr-18 00:34N 37°49' W 122°24'1 0.5
2016-Apr-17 23:33N 37°48' W 122°24'4 3.5
2016-Apr-17 22:34N 37°48' W 122°19'4 3.5
2016-Apr-17 21:34N 37°48' W 122°24'4 4.1
2016-Apr-17 20:34N 37°45' W 122°20'2 2.4
2016-Apr-17 19:33N 37°48' W 122°19'3 3.4
2016-Apr-17 18:33N 37°48' W 122°24'1110.5
2016-Apr-17 17:33N 37°46' W 122°37'1110.6
2016-Apr-17 16:33N 37°48' W 122°24'1 1.0
2016-Apr-17 15:33N 37°48' W 122°23'1 0.9
2016-Apr-17 14:33N 37°48' W 122°24'4 4.2
2016-Apr-17 13:33N 37°48' W 122°18'4 4.2
2016-Apr-17 12:33N 37°48' W 122°24'1 0.6
2016-Apr-17 11:33N 37°49' W 122°24'4 4.4
2016-Apr-17 10:34N 37°45' W 122°21'4 3.9
2016-Apr-17 09:33N 37°48' W 122°24'0 0.0
2016-Apr-17 08:34N 37°48' W 122°24'0 0.0
2016-Apr-17 07:34N 37°48' W 122°24'0 0.0
2016-Apr-17 06:34N 37°48' W 122°24'0 0.0
2016-Apr-17 05:33N 37°48' W 122°24'0 0.0
2016-Apr-17 04:34N 37°48' W 122°24'9 9.2
2016-Apr-17 03:34N 37°47' W 122°35'9 9.2
2016-Apr-17 02:33N 37°48' W 122°24'0 0.1
2016-Apr-17 01:34N 37°48' W 122°24'4 3.8
2016-Apr-17 00:34N 37°49' W 122°28'6 6.4
2016-Apr-16 23:33N 37°48' W 122°20'3 2.7
2016-Apr-16 22:33N 37°48' W 122°24'0 0.0
2016-Apr-16 21:33N 37°48' W 122°24'0 0.0
2016-Apr-16 20:33N 37°48' W 122°24'0 0.0
2016-Apr-16 19:33N 37°48' W 122°24'1 0.6
2016-Apr-16 18:34N 37°48' W 122°23'1 0.5
2016-Apr-16 17:33N 37°48' W 122°23'2 2.1
2016-Apr-16 16:34N 37°49' W 122°25'4 4.3
2016-Apr-16 15:34N 37°46' W 122°21'3 3.1
2016-Apr-16 14:33N 37°48' W 122°24'0 0.1
2016-Apr-16 13:33N 37°48' W 122°24'2 1.8
2016-Apr-16 12:34N 37°48' W 122°22'1 1.4
2016-Apr-16 11:34N 37°49' W 122°23'3 3.1
2016-Apr-16 10:34N 37°46' W 122°21'3 3.0
2016-Apr-16 09:33N 37°48' W 122°24'0 0.0
2016-Apr-16 08:34N 37°48' W 122°24'0 0.0
2016-Apr-16 07:33N 37°48' W 122°24'0 0.0
2016-Apr-16 06:33N 37°48' W 122°24'4 3.6
2016-Apr-16 05:34N 37°49' W 122°28'6 6.1
2016-Apr-16 04:33N 37°49' W 122°20'3 2.7
2016-Apr-16 03:33N 37°48' W 122°24'0 0.0
2016-Apr-16 02:33N 37°48' W 122°24'0 0.0
2016-Apr-16 01:33N 37°48' W 122°24'0 0.0
2016-Apr-16 00:33N 37°48' W 122°24'0 0.0
2016-Apr-15 23:33N 37°48' W 122°24'0 0.0
2016-Apr-15 22:33N 37°48' W 122°24'0 0.0
2016-Apr-15 21:33N 37°48' W 122°24'0 0.0
2016-Apr-15 20:33N 37°48' W 122°24'0 0.0
2016-Apr-15 19:34N 37°48' W 122°24'0 0.0
2016-Apr-15 18:33N 37°48' W 122°24'0 0.0
2016-Apr-15 17:33N 37°48' W 122°24'0 0.0
2016-Apr-15 16:33N 37°48' W 122°24'3 3.0
2016-Apr-15 15:33N 37°48' W 122°20'5 5.3
2016-Apr-15 14:33N 37°49' W 122°27'2 2.4
2016-Apr-15 13:34N 37°48' W 122°24'0 0.0
2016-Apr-15 12:33N 37°48' W 122°24'0 0.0
2016-Apr-15 11:33N 37°48' W 122°24'0 0.0
2016-Apr-15 10:33N 37°48' W 122°24'0 0.0
2016-Apr-15 09:33N 37°48' W 122°24'4 3.9
2016-Apr-15 08:33N 37°46' W 122°20'4 3.8
2016-Apr-15 07:33N 37°48' W 122°24'0 0.0
2016-Apr-15 06:33N 37°48' W 122°24'2 1.8
2016-Apr-15 05:33N 37°48' W 122°22'2 1.8
2016-Apr-15 04:33N 37°48' W 122°24'1 0.9
2016-Apr-15 03:34N 37°49' W 122°24'9 8.5
2016-Apr-15 02:33N 37°47' W 122°35'9 8.7
2016-Apr-15 01:33N 37°48' W 122°24'0 0.0
2016-Apr-15 00:33N 37°48' W 122°24'0 0.0
2016-Apr-14 23:33N 37°48' W 122°24'0 0.0
2016-Apr-14 22:33N 37°48' W 122°24'0 0.0
2016-Apr-14 21:32N 37°48' W 122°24'0 0.0
2016-Apr-14 20:33N 37°48' W 122°24'0 0.0
2016-Apr-14 19:33N 37°48' W 122°24'0 0.0
2016-Apr-14 18:33N 37°48' W 122°24'0 0.0
2016-Apr-14 17:33N 37°48' W 122°24'0 0.0
2016-Apr-14 16:33N 37°48' W 122°24'1 1.2
2016-Apr-14 15:33N 37°49' W 122°25'1 1.4
2016-Apr-14 14:34N 37°48' W 122°24'0 0.2
2016-Apr-14 13:33N 37°48' W 122°24'0 0.0
2016-Apr-14 12:33N 37°48' W 122°24'2 2.2
2016-Apr-14 11:34N 37°49' W 122°26'2 2.2
2016-Apr-14 10:33N 37°48' W 122°24'0 0.0
2016-Apr-14 09:33N 37°48' W 122°24'0 0.0
2016-Apr-14 08:33N 37°48' W 122°24'0 0.0
2016-Apr-14 07:33N 37°48' W 122°24'2 2.3
2016-Apr-14 06:34N 37°46' W 122°22'2 2.2
2016-Apr-14 05:33N 37°48' W 122°20'6 6.3
2016-Apr-14 04:34N 37°49' W 122°27'3 3.4
2016-Apr-14 03:34N 37°48' W 122°23'3 3.0
2016-Apr-14 02:33N 37°48' W 122°20'3 3.4
2016-Apr-14 01:33N 37°48' W 122°24'0 0.0
2016-Apr-14 00:31N 37°48' W 122°24'0 0.0
2016-Apr-13 23:34N 37°48' W 122°24'2 1.7
2016-Apr-13 22:33N 37°47' W 122°22'0 0.3
2016-Apr-13 21:33N 37°47' W 122°22'2 1.8
2016-Apr-13 20:33N 37°48' W 122°24'0 0.1
2016-Apr-13 19:33N 37°48' W 122°24'0 0.0
2016-Apr-13 18:33N 37°48' W 122°24'0 0.0
2016-Apr-13 17:33N 37°48' W 122°24'0 0.0
2016-Apr-13 16:33N 37°48' W 122°24'4 3.8
2016-Apr-13 15:34N 37°48' W 122°19'3 2.7
2016-Apr-13 14:33N 37°46' W 122°21'3 3.4
2016-Apr-13 13:33N 37°48' W 122°24'2 2.0
2016-Apr-13 12:33N 37°49' W 122°26'5 5.2
2016-Apr-13 11:33N 37°48' W 122°20'3 3.4
2016-Apr-13 10:33N 37°48' W 122°24'3 3.2
2016-Apr-13 09:33N 37°48' W 122°20'3 3.2
2016-Apr-13 08:33N 37°48' W 122°24'2 1.9
2016-Apr-13 07:33N 37°49' W 122°26'2 1.9
2016-Apr-13 06:33N 37°48' W 122°24'0 0.0
2016-Apr-13 05:33N 37°48' W 122°24'0 0.0
2016-Apr-13 04:33N 37°48' W 122°24'3 2.6
2016-Apr-13 03:33N 37°48' W 122°21'2 1.7
2016-Apr-13 02:33N 37°48' W 122°18'3 2.5
2016-Apr-13 01:33N 37°48' W 122°22'2 1.7
2016-Apr-13 00:34N 37°48' W 122°24'3 3.2
2016-Apr-12 23:34N 37°46' W 122°21'3 3.2
2016-Apr-12 22:33N 37°48' W 122°24'0 0.0
2016-Apr-12 21:33N 37°48' W 122°24'1 1.3
2016-Apr-12 20:33N 37°49' W 122°25'1 1.3
2016-Apr-12 19:33N 37°48' W 122°24'0 0.0
2016-Apr-12 18:33N 37°48' W 122°24'0 0.0
2016-Apr-12 17:33N 37°48' W 122°24'0 0.0
2016-Apr-12 16:33N 37°48' W 122°24'0 0.0
2016-Apr-12 15:33N 37°48' W 122°24'0 0.0
2016-Apr-12 14:33N 37°48' W 122°24'0 0.0
2016-Apr-12 13:33N 37°48' W 122°24'0 0.0
2016-Apr-12 12:33N 37°48' W 122°24'0 0.0
2016-Apr-12 11:33N 37°48' W 122°24'3 3.4
2016-Apr-12 10:34N 37°45' W 122°21'1211.6
2016-Apr-12 09:33N 37°46' W 122°36'1010.0
2016-Apr-12 08:33N 37°48' W 122°24'0 0.2
2016-Apr-12 07:33N 37°48' W 122°24'0 0.0
2016-Apr-12 06:33N 37°48' W 122°24'0 0.0
2016-Apr-12 05:33N 37°48' W 122°24'0 0.0
2016-Apr-12 04:33N 37°48' W 122°24'0 0.0
2016-Apr-12 03:33N 37°48' W 122°24'5 4.6
2016-Apr-12 02:33N 37°48' W 122°30'1 0.5
2016-Apr-12 01:33N 37°49' W 122°30'5 5.0
2016-Apr-12 00:32N 37°48' W 122°24'0 0.0
2016-Apr-11 23:33N 37°48' W 122°24'0 0.0
2016-Apr-11 22:33N 37°48' W 122°24'0 0.0
2016-Apr-11 21:33N 37°48' W 122°24'0 0.0
2016-Apr-11 20:33N 37°48' W 122°24'0 0.0
2016-Apr-11 19:33N 37°48' W 122°24'0 0.0
2016-Apr-11 18:33N 37°48' W 122°24'0 0.0
2016-Apr-11 17:33N 37°48' W 122°24'4 3.6
2016-Apr-11 16:33N 37°48' W 122°19'5 4.8
2016-Apr-11 15:33N 37°49' W 122°25'1 1.2
2016-Apr-11 14:33N 37°48' W 122°24'0 0.0
2016-Apr-11 13:33N 37°48' W 122°24'9 8.7
2016-Apr-11 12:33N 37°47' W 122°35'9 8.7
2016-Apr-11 11:33N 37°48' W 122°24'0 0.0
2016-Apr-11 10:33N 37°48' W 122°24'0 0.0
2016-Apr-11 09:33N 37°48' W 122°24'0 0.0
2016-Apr-11 08:24N 37°48' W 122°24'3 3.0
2016-Apr-11 07:33N 37°49' W 122°27'3 2.5
2016-Apr-11 06:33N 37°48' W 122°24'0 0.0
2016-Apr-11 05:33N 37°48' W 122°24'0 0.3
2016-Apr-11 04:33N 37°48' W 122°24'9 8.9
2016-Apr-11 03:33N 37°47' W 122°35'9 8.6
2016-Apr-11 02:32N 37°48' W 122°24'0 0.0
2016-Apr-11 01:33N 37°48' W 122°24'0 0.0
2016-Apr-11 00:33N 37°48' W 122°24'3 3.4
2016-Apr-10 23:34N 37°49' W 122°28'2 2.4
2016-Apr-10 22:34N 37°49' W 122°25'4 3.5
2016-Apr-10 21:34N 37°46' W 122°22'3 2.9
2016-Apr-10 20:33N 37°49' W 122°24'1 0.7
2016-Apr-10 19:33N 37°48' W 122°24'0 0.0
2016-Apr-10 18:33N 37°48' W 122°24'2 2.2
2016-Apr-10 17:33N 37°48' W 122°21'1 0.6
2016-Apr-10 16:34N 37°48' W 122°21'3 2.6
2016-Apr-10 15:33N 37°48' W 122°24'0 0.0
2016-Apr-10 14:33N 37°48' W 122°24'1 0.6
2016-Apr-10 13:34N 37°48' W 122°23'1 0.6
2016-Apr-10 12:33N 37°48' W 122°24'0 0.0
2016-Apr-10 11:33N 37°48' W 122°24'2 2.3
2016-Apr-10 10:33N 37°48' W 122°21'2 2.2
2016-Apr-10 09:33N 37°48' W 122°24'0 0.0
2016-Apr-10 08:33N 37°48' W 122°24'0 0.1
2016-Apr-10 07:33N 37°48' W 122°24'3 3.3
2016-Apr-10 06:33N 37°46' W 122°21'3 3.3
2016-Apr-10 05:33N 37°48' W 122°24'2 2.5
2016-Apr-10 04:33N 37°46' W 122°22'2 2.5
2016-Apr-10 03:33N 37°48' W 122°24'0 0.0
2016-Apr-10 02:33N 37°48' W 122°24'3 2.9
2016-Apr-10 01:33N 37°46' W 122°21'3 2.9
2016-Apr-10 00:33N 37°48' W 122°24'0 0.0
2016-Apr-09 23:32N 37°48' W 122°24'0 0.0
2016-Apr-09 22:33N 37°48' W 122°24'0 0.0
2016-Apr-09 21:33N 37°48' W 122°24'8 8.5
2016-Apr-09 20:34N 37°47' W 122°34'  

Dump ship's entire track history